createdAt,value
2022-08-03T00:01:21.534Z,4142.1
2022-08-03T00:06:56.475Z,4140.6
2022-08-03T00:12:31.282Z,4141.4
2022-08-03T00:18:28.383Z,4139.6
2022-08-03T00:24:01.159Z,4141.9
2022-08-03T00:30:01.352Z,4138.1
2022-08-03T00:35:52.179Z,4141.6
2022-08-03T00:41:28.208Z,4141.1
2022-08-03T00:47:03.200Z,4140.1
2022-08-03T00:52:38.061Z,4140.9
2022-08-03T00:58:13.903Z,4138.9
2022-08-03T01:03:48.924Z,4138.9
2022-08-03T01:09:23.784Z,4139.4
2022-08-03T01:14:59.809Z,4135.9
2022-08-03T01:20:34.806Z,4136.9
2022-08-03T01:26:09.575Z,4137.6
2022-08-03T01:33:05.324Z,4137.1
2022-08-03T01:38:42.199Z,4139.3
2022-08-03T01:44:32.107Z,4136.2
2022-08-03T01:50:06.900Z,4136.9
2022-08-03T01:55:42.824Z,4138.8
2022-08-03T02:01:18.952Z,4136.6
2022-08-03T02:07:04.422Z,4135.2
2022-08-03T02:12:40.295Z,4136.9
2022-08-03T02:18:36.936Z,4132.1
2022-08-03T02:24:09.641Z,4133.2
2022-08-03T02:29:44.277Z,4134.2
2022-08-03T02:35:19.036Z,4135.7
2022-08-03T02:40:53.913Z,4133.6
2022-08-03T02:46:29.487Z,4134.1
2022-08-03T02:52:04.538Z,4132.4
2022-08-03T02:57:39.338Z,4134.4
2022-08-03T03:03:15.268Z,4132.9
2022-08-03T03:09:00.341Z,4130.7
2022-08-03T03:14:36.283Z,4132.6
2022-08-03T03:20:11.104Z,4128.9
2022-08-03T03:25:45.711Z,4129.7
2022-08-03T03:31:20.527Z,4130.9
2022-08-03T03:36:55.395Z,4129
2022-08-03T03:42:30.373Z,4129.2
2022-08-03T03:48:06.190Z,4130.9
2022-08-03T03:53:41.441Z,4130.5
2022-08-03T03:59:16.200Z,4131.2
2022-08-03T04:04:51.146Z,4128.2
2022-08-03T04:10:27.149Z,4127.7
2022-08-03T04:16:02.080Z,4126.4
2022-08-03T04:21:36.936Z,4127.9
2022-08-03T04:27:13.011Z,4127.9
2022-08-03T04:32:50.855Z,4126.5
2022-08-03T04:38:26.718Z,4125.4
2022-08-03T04:44:01.870Z,4128.4
2022-08-03T04:49:38.365Z,4125.4
2022-08-03T04:55:13.487Z,4126.9
2022-08-03T05:00:50.211Z,4128.9
2022-08-03T05:06:26.300Z,4128.9
2022-08-03T05:12:02.134Z,4127.7
2022-08-03T05:18:00.405Z,4121.5
2022-08-03T05:23:33.191Z,4125.7
2022-08-03T05:29:08.325Z,4122.8
2022-08-03T05:34:43.381Z,4124.9
2022-08-03T05:40:18.364Z,4124.4
2022-08-03T05:46:34.734Z,4128.9
2022-08-03T05:52:24.818Z,4125.5
2022-08-03T05:58:00.274Z,4122
2022-08-03T06:03:35.000Z,4123.9
2022-08-03T06:09:09.776Z,4121.7
2022-08-03T06:14:45.186Z,4121.7
2022-08-03T06:20:20.984Z,4122.5
2022-08-03T06:25:55.594Z,4122.3
2022-08-03T06:31:34.631Z,4119.8
2022-08-03T06:37:09.793Z,4122.3
2022-08-03T06:42:47.281Z,4121
2022-08-03T06:48:22.350Z,4119.7
2022-08-03T06:53:57.209Z,4121.3
2022-08-03T07:00:13.576Z,4120.5
2022-08-03T07:05:50.252Z,4119.8
2022-08-03T07:11:26.094Z,4120.5
2022-08-03T07:17:22.632Z,4115.1
2022-08-03T07:22:55.342Z,4119.7
2022-08-03T07:28:31.150Z,4119.3
2022-08-03T07:34:06.452Z,4118
2022-08-03T07:39:41.670Z,4118
2022-08-03T07:45:17.847Z,4121.5
2022-08-03T07:50:52.725Z,4117
2022-08-03T07:56:27.768Z,4119.3
2022-08-03T08:02:02.615Z,4117
2022-08-03T08:07:37.325Z,4115.1
2022-08-03T08:13:12.201Z,4117.1
2022-08-03T08:18:47.071Z,4116.6
2022-08-03T08:24:25.115Z,4115.5
2022-08-03T08:30:20.217Z,4116.6
2022-08-03T08:35:55.434Z,4115
2022-08-03T08:41:33.415Z,4114.5
2022-08-03T08:47:08.795Z,4114.1
2022-08-03T08:52:43.485Z,4114
2022-08-03T08:58:21.965Z,4114.6
2022-08-03T09:03:57.036Z,4114.8
2022-08-03T09:10:14.640Z,4114.5
2022-08-03T09:16:02.437Z,4114.6
2022-08-03T09:21:37.581Z,4114.5
2022-08-03T09:27:12.924Z,4114.5
2022-08-03T09:32:47.946Z,4113.8
2022-08-03T09:38:22.829Z,4114.3
2022-08-03T09:43:57.748Z,4112.8
2022-08-03T09:49:34.632Z,4114
2022-08-03T09:56:38.535Z,4112.6
2022-08-03T10:02:13.873Z,4112.1
2022-08-03T10:07:48.809Z,4111.1
2022-08-03T10:13:23.717Z,4109.9
2022-08-03T10:19:20.343Z,4107.9
2022-08-03T10:24:53.093Z,4111.6
2022-08-03T10:30:31.434Z,4108.4
2022-08-03T10:36:06.487Z,4108.9
2022-08-03T10:41:41.897Z,4109.8
2022-08-03T10:47:19.350Z,4112.1
2022-08-03T10:52:55.454Z,4109.1
2022-08-03T10:58:32.104Z,4108.8
2022-08-03T11:04:17.809Z,4108.6
2022-08-03T11:09:52.681Z,4108.9
2022-08-03T11:15:27.640Z,4107.3
2022-08-03T11:21:03.048Z,4109.1
2022-08-03T11:26:40.203Z,4105.8
2022-08-03T11:32:20.765Z,4105.3
2022-08-03T11:38:06.613Z,4106.4
2022-08-03T11:43:42.461Z,4107.6
2022-08-03T11:49:18.194Z,4107.6
2022-08-03T11:54:58.391Z,4106.8
2022-08-03T12:00:33.314Z,4104.4
2022-08-03T12:06:08.230Z,4104.9
2022-08-03T12:12:02.132Z,4106.9
2022-08-03T12:17:59.480Z,4101.4
2022-08-03T12:23:38.764Z,4103.9
2022-08-03T12:29:14.258Z,4104.6
2022-08-03T12:34:49.185Z,4104.6
2022-08-03T12:40:29.735Z,4104.3
2022-08-03T12:46:04.683Z,4103.9
2022-08-03T12:51:39.806Z,4103.2
2022-08-03T12:57:18.906Z,4103.9
2022-08-03T13:03:53.382Z,4101.2
2022-08-03T13:09:29.510Z,4102.7
2022-08-03T13:15:04.412Z,4101.2
2022-08-03T13:20:40.294Z,4101.4
2022-08-03T13:26:15.669Z,4103.2
2022-08-03T13:31:52.403Z,4101.2
2022-08-03T13:37:28.969Z,4101.1
2022-08-03T13:43:03.916Z,4098.2
2022-08-03T13:48:39.158Z,4099.1
2022-08-03T13:54:14.190Z,4100.7
2022-08-03T13:59:49.490Z,4100.2
2022-08-03T14:05:24.343Z,4100.1
2022-08-03T14:10:59.242Z,4098.2
2022-08-03T14:16:35.187Z,4097.9
2022-08-03T14:22:11.185Z,4098.9
2022-08-03T14:27:46.291Z,4098.6
2022-08-03T14:33:21.763Z,4098.9
2022-08-03T14:39:03.247Z,4096.7
2022-08-03T14:44:38.427Z,4096.4
2022-08-03T14:50:53.340Z,4098.2
2022-08-03T14:56:28.967Z,4096
2022-08-03T15:02:25.681Z,4096.4
2022-08-03T15:08:10.018Z,4096.7
2022-08-03T15:13:44.905Z,4096.4
2022-08-03T15:20:47.595Z,4097.2
2022-08-03T15:26:42.663Z,4095.7
2022-08-03T15:32:22.474Z,4096.9
2022-08-03T15:37:57.535Z,4095.9
2022-08-03T15:43:32.332Z,4095
2022-08-03T15:49:08.174Z,4095
2022-08-03T15:54:43.500Z,4094.9
2022-08-03T16:00:34.868Z,4093.7
2022-08-03T16:06:10.906Z,4094.2
2022-08-03T16:11:45.797Z,4094.7
2022-08-03T16:17:43.559Z,4092.5
2022-08-03T16:23:20.258Z,4093.9
2022-08-03T16:28:55.362Z,4094
2022-08-03T16:34:30.785Z,4093
2022-08-03T16:40:05.921Z,4093.5
2022-08-03T16:45:40.678Z,4093.4
2022-08-03T16:51:15.742Z,4092.4
2022-08-03T16:56:57.053Z,4092.9
2022-08-03T17:02:32.883Z,4093
2022-08-03T17:08:13.919Z,4093.9
2022-08-03T17:13:48.875Z,4090.7
2022-08-03T17:19:56.003Z,4090.9
2022-08-03T17:26:22.558Z,4091.2
2022-08-03T17:32:24.884Z,4093.5
2022-08-03T17:38:23.267Z,4093
2022-08-03T21:18:53.218Z,4039.3
2022-08-03T21:24:27.684Z,4040.6
2022-08-03T21:30:02.467Z,4041.1
2022-08-03T21:35:39.247Z,4040.4
2022-08-03T21:41:14.299Z,4040.1
2022-08-03T21:46:50.121Z,4039.1
2022-08-03T21:52:26.010Z,4040.9
2022-08-03T21:58:00.960Z,4039.9
2022-08-03T22:03:55.130Z,4039.9
2022-08-03T22:09:33.448Z,4040.1
2022-08-03T22:15:07.966Z,4040.9
2022-08-03T22:20:43.794Z,4040.3
2022-08-03T22:26:36.662Z,4040.6
2022-08-03T22:32:11.451Z,4039.8
2022-08-03T22:37:48.039Z,4038.8
2022-08-03T22:43:23.914Z,4039.1
2022-08-03T22:48:58.717Z,4041.3
2022-08-03T22:54:33.896Z,4039.4
2022-08-03T23:00:08.659Z,4037.8
2022-08-03T23:06:04.939Z,4040.3
2022-08-03T23:11:47.133Z,4039.3
2022-08-03T23:17:59.570Z,4037.6
2022-08-03T23:23:45.889Z,4039.4
2022-08-03T23:29:20.975Z,4039.8
2022-08-03T23:34:56.092Z,4033.7
2022-08-03T23:40:30.947Z,4039.8
2022-08-03T23:46:05.713Z,4038.9
2022-08-03T23:51:40.906Z,4039.6
2022-08-03T23:57:15.643Z,4038.6
